Time;durP1;ratioP1;P1;durP2;ratioP2;P2;SDS_P1;SDS_P2;PMS_P1;PMS_P2;Temp;Humidity;BMP_temperature;BMP_pressure;BME280_temperature;BME280_humidity;BME280_pressure;Samples;Min_cycle;Max_cycle;Signal;HPM_P1;HPM_P2
2023/04/30 00:00:31;;;;;;;18.35;14.38;;;12.70;97.90;;;;;;4115785;28;19933;-52
2023/04/30 00:02:34;;;;;;;19.38;14.45;;;12.70;98.00;;;;;;4116369;28;20056;-55
2023/04/30 00:04:37;;;;;;;20.23;15.00;;;12.70;98.10;;;;;;4116570;28;20047;-55
2023/04/30 00:06:39;;;;;;;19.52;14.98;;;12.70;98.10;;;;;;4115440;28;20058;-55
2023/04/30 00:08:41;;;;;;;20.98;14.93;;;12.70;98.00;;;;;;4115976;28;20059;-51
2023/04/30 00:10:43;;;;;;;19.23;14.18;;;12.60;98.10;;;;;;4115331;28;20055;-55
2023/04/30 00:12:45;;;;;;;23.08;16.08;;;12.50;98.20;;;;;;4116240;28;20059;-55
2023/04/30 00:14:48;;;;;;;20.25;15.40;;;12.60;98.20;;;;;;4116282;28;20389;-55
2023/04/30 00:16:50;;;;;;;21.60;15.23;;;12.50;98.30;;;;;;4116279;28;20179;-55
2023/04/30 00:18:53;;;;;;;20.65;15.07;;;12.50;98.50;;;;;;4116013;28;20137;-55
2023/04/30 00:20:55;;;;;;;20.35;14.30;;;12.50;98.30;;;;;;4115214;28;20054;-56
2023/04/30 00:22:58;;;;;;;21.17;15.13;;;12.50;98.30;;;;;;4115639;28;20055;-55
2023/04/30 00:25:00;;;;;;;25.27;14.98;;;12.50;98.30;;;;;;4117278;28;20046;-56
2023/04/30 00:27:02;;;;;;;21.50;14.90;;;12.40;98.30;;;;;;4132169;28;20113;-55
2023/04/30 00:29:05;;;;;;;20.42;15.23;;;12.40;98.50;;;;;;4132011;28;20410;-54
2023/04/30 00:31:08;;;;;;;22.52;15.70;;;12.40;98.50;;;;;;4131258;28;20411;-54
2023/04/30 00:33:10;;;;;;;22.25;14.93;;;12.30;98.50;;;;;;4131953;28;20065;-54
2023/04/30 00:35:14;;;;;;;19.83;14.77;;;12.30;98.50;;;;;;4132076;28;20060;-58
2023/04/30 00:37:16;;;;;;;21.65;16.05;;;12.20;98.70;;;;;;4131888;28;20407;-55
2023/04/30 00:39:18;;;;;;;18.52;14.43;;;12.20;98.70;;;;;;4131350;28;20047;-55
2023/04/30 00:41:22;;;;;;;19.17;14.82;;;12.10;98.80;;;;;;4131606;28;20562;-54
2023/04/30 00:43:24;;;;;;;22.83;14.50;;;12.10;98.80;;;;;;4132047;28;20053;-54
2023/04/30 00:45:26;;;;;;;19.75;14.68;;;12.20;98.80;;;;;;4131944;28;20050;-54
2023/04/30 00:47:28;;;;;;;19.35;14.63;;;12.10;98.80;;;;;;4131735;28;20053;-55
2023/04/30 00:49:30;;;;;;;17.85;14.70;;;12.10;98.90;;;;;;4131007;28;20050;-55
2023/04/30 00:51:34;;;;;;;21.63;14.20;;;12.10;99.30;;;;;;4131217;28;20058;-55
2023/04/30 00:53:38;;;;;;;20.10;14.10;;;12.00;99.00;;;;;;4131844;28;20101;-55
2023/04/30 00:55:42;;;;;;;18.40;13.45;;;12.00;99.10;;;;;;4114607;28;20076;-54
2023/04/30 00:57:45;;;;;;;21.38;15.15;;;12.00;99.20;;;;;;4131704;28;20384;-55
2023/04/30 00:59:47;;;;;;;18.83;13.70;;;12.00;99.10;;;;;;4130844;28;20508;-55
2023/04/30 01:01:51;;;;;;;18.95;14.57;;;12.00;99.20;;;;;;4131517;28;20125;-55
2023/04/30 01:03:56;;;;;;;23.55;14.70;;;12.10;99.30;;;;;;4131517;28;20054;-55
2023/04/30 01:05:58;;;;;;;17.80;13.40;;;12.10;99.20;;;;;;4114034;28;20043;-54
2023/04/30 01:08:02;;;;;;;19.60;14.73;;;12.10;99.30;;;;;;4131744;28;20136;-54
2023/04/30 01:10:04;;;;;;;18.77;14.38;;;12.10;99.20;;;;;;4130550;28;20050;-52
2023/04/30 01:12:12;;;;;;;23.23;16.05;;;12.10;99.40;;;;;;4131649;28;20053;-53
2023/04/30 01:14:26;;;;;;;20.70;14.70;;;12.20;99.30;;;;;;4114342;28;20062;-53
2023/04/30 01:16:34;;;;;;;18.35;13.45;;;12.20;99.00;;;;;;4131319;28;20133;-52
2023/04/30 01:18:42;;;;;;;17.77;14.15;;;12.20;99.30;;;;;;4131447;28;20061;-56
2023/04/30 01:20:51;;;;;;;19.27;13.73;;;12.20;99.10;;;;;;4112840;28;20390;-55
2023/04/30 01:22:58;;;;;;;21.42;13.55;;;12.10;99.10;;;;;;4131100;28;20050;-56
2023/04/30 01:25:24;;;;;;;19.63;13.30;;;12.20;99.20;;;;;;4131511;28;20105;-55
2023/04/30 01:27:30;;;;;;;;;;;12.20;99.10;;;;;;4131885;28;20046;-52
2023/04/30 01:29:35;;;;;;;17.35;12.98;;;12.10;98.80;;;;;;4130750;28;19976;-55
2023/04/30 01:31:37;;;;;;;17.23;12.43;;;12.00;99.20;;;;;;4131199;28;20046;-55
2023/04/30 01:33:39;;;;;;;17.73;13.68;;;12.00;99.20;;;;;;4131272;28;20054;-60
2023/04/30 01:35:57;;;;;;;18.65;13.27;;;12.00;99.10;;;;;;4131108;28;20097;-54
2023/04/30 01:38:09;;;;;;;17.92;12.35;;;11.90;99.10;;;;;;4131140;28;20507;-55
2023/04/30 01:40:21;;;;;;;17.90;13.30;;;11.90;99.30;;;;;;4130361;28;20050;-56
2023/04/30 01:42:29;;;;;;;16.45;13.40;;;11.90;99.40;;;;;;4113964;28;20094;-55
2023/04/30 01:44:53;;;;;;;20.92;14.82;;;11.90;99.50;;;;;;4131035;28;20149;-55
2023/04/30 01:47:03;;;;;;;20.48;13.18;;;11.90;99.70;;;;;;4131315;28;20519;-55
2023/04/30 01:49:13;;;;;;;19.23;13.38;;;11.90;99.50;;;;;;4131017;28;20121;-55
2023/04/30 01:51:22;;;;;;;20.33;13.93;;;12.00;99.40;;;;;;4130034;28;20134;-55
2023/04/30 01:53:38;;;;;;;15.95;12.27;;;11.90;99.30;;;;;;4131068;28;20057;-55
2023/04/30 01:55:43;;;;;;;16.90;13.20;;;11.90;99.40;;;;;;4131288;28;20050;-56
2023/04/30 01:57:54;;;;;;;18.73;12.98;;;11.90;99.50;;;;;;4131145;28;20137;-55
2023/04/30 01:59:58;;;;;;;18.02;13.43;;;11.90;99.40;;;;;;4130457;28;20491;-55
2023/04/30 02:02:00;;;;;;;18.90;13.43;;;11.80;99.50;;;;;;4130872;28;20395;-55
2023/04/30 02:04:03;;;;;;;17.40;13.43;;;11.80;99.50;;;;;;4130705;28;20054;-55
2023/04/30 02:06:05;;;;;;;18.10;13.77;;;11.90;99.40;;;;;;4131120;28;20086;-55
2023/04/30 02:08:07;;;;;;;19.90;14.57;;;11.90;99.60;;;;;;4131055;28;20065;-55
2023/04/30 02:10:11;;;;;;;19.80;13.98;;;11.90;99.50;;;;;;4130182;28;20049;-54
2023/04/30 02:12:13;;;;;;;16.63;12.95;;;11.90;99.30;;;;;;4131070;28;20434;-55
2023/04/30 02:14:15;;;;;;;17.70;13.95;;;11.90;99.30;;;;;;4130942;28;20050;-56
2023/04/30 02:16:19;;;;;;;17.83;13.43;;;11.80;99.40;;;;;;4130832;28;20046;-55
2023/04/30 02:18:22;;;;;;;17.52;12.60;;;11.80;99.40;;;;;;4130955;28;20484;-54
2023/04/30 02:20:24;;;;;;;16.73;13.23;;;11.80;99.50;;;;;;4130068;28;20047;-54
2023/04/30 02:22:26;;;;;;;18.90;13.80;;;11.80;99.50;;;;;;4113596;28;20477;-56
2023/04/30 02:24:28;;;;;;;21.15;13.80;;;11.80;99.70;;;;;;4131257;28;20054;-56
2023/04/30 02:26:30;;;;;;;20.02;14.60;;;11.70;99.60;;;;;;4131000;28;20055;-55
2023/04/30 02:28:32;;;;;;;17.75;12.98;;;11.80;99.70;;;;;;4130982;28;20120;-55
2023/04/30 02:30:34;;;;;;;18.90;14.55;;;11.70;99.80;;;;;;4132950;28;20066;-54
2023/04/30 02:32:38;;;;;;;18.63;12.52;;;11.70;99.90;;;;;;4133953;28;20058;-54
2023/04/30 02:34:40;;;;;;;19.95;13.65;;;11.80;99.80;;;;;;4133758;28;20150;-54
2023/04/30 02:36:42;;;;;;;17.83;13.13;;;11.80;99.70;;;;;;4134037;28;20715;-55
2023/04/30 02:38:44;;;;;;;21.70;14.23;;;11.80;99.80;;;;;;4116459;28;20054;-55
2023/04/30 02:40:46;;;;;;;18.45;13.45;;;11.80;99.70;;;;;;4132691;28;20046;-55
2023/04/30 02:42:48;;;;;;;21.05;14.35;;;11.80;99.80;;;;;;4133786;28;20057;-55
2023/04/30 02:44:50;;;;;;;18.08;13.93;;;11.80;99.90;;;;;;4133553;28;20070;-55
2023/04/30 02:46:52;;;;;;;22.40;14.50;;;11.80;99.90;;;;;;4133686;28;20459;-55
2023/04/30 02:48:55;;;;;;;18.90;13.77;;;11.80;99.90;;;;;;4133255;28;20046;-56
2023/04/30 02:50:57;;;;;;;20.08;15.73;;;11.80;99.60;;;;;;4132749;28;20411;-55
2023/04/30 02:53:00;;;;;;;18.25;14.05;;;11.80;99.70;;;;;;4133855;28;20483;-55
2023/04/30 02:55:03;;;;;;;19.55;13.80;;;11.80;99.80;;;;;;4133593;28;20054;-53
2023/04/30 02:57:06;;;;;;;20.58;14.55;;;11.70;99.90;;;;;;4133616;28;20042;-53
2023/04/30 02:59:08;;;;;;;21.63;14.70;;;11.80;99.70;;;;;;4133657;28;20061;-53
2023/04/30 03:01:10;;;;;;;19.58;14.27;;;11.80;99.60;;;;;;4132899;28;20046;-55
2023/04/30 03:03:12;;;;;;;22.20;15.48;;;11.70;99.70;;;;;;4133623;28;20050;-52
2023/04/30 03:05:16;;;;;;;24.08;16.10;;;11.60;99.90;;;;;;4134175;28;20093;-60
2023/04/30 03:07:18;;;;;;;19.52;14.43;;;11.50;99.90;;;;;;4134143;28;20050;-52
2023/04/30 03:09:20;;;;;;;23.45;15.15;;;11.50;99.90;;;;;;4134284;28;20039;-53
2023/04/30 03:11:22;;;;;;;18.95;14.43;;;11.50;99.90;;;;;;4133880;28;20081;-52
2023/04/30 03:13:25;;;;;;;18.40;14.30;;;11.40;99.90;;;;;;4134528;28;20042;-52
2023/04/30 03:15:28;;;;;;;22.15;15.60;;;11.40;99.90;;;;;;4134438;28;20381;-56
2023/04/30 03:17:30;;;;;;;23.20;16.17;;;11.40;99.90;;;;;;4133458;28;20444;-53
2023/04/30 03:19:32;;;;;;;21.33;15.23;;;11.40;99.90;;;;;;4133388;28;20431;-54
2023/04/30 03:21:36;;;;;;;18.23;13.57;;;11.50;99.90;;;;;;4132246;28;20070;-53
2023/04/30 03:23:38;;;;;;;21.58;15.63;;;11.40;99.90;;;;;;4133457;28;20050;-52
2023/04/30 03:25:40;;;;;;;19.67;14.93;;;11.40;99.90;;;;;;4133361;28;20046;-52
2023/04/30 03:27:42;;;;;;;17.92;14.02;;;11.40;99.90;;;;;;4133322;28;20496;-53
2023/04/30 03:29:44;;;;;;;23.23;17.08;;;11.40;99.90;;;;;;4133195;28;20105;-55
2023/04/30 03:31:46;;;;;;;22.20;17.10;;;11.50;99.90;;;;;;4131976;28;20046;-52
2023/04/30 03:33:48;;;;;;;24.98;16.60;;;11.40;99.90;;;;;;4132948;28;20046;-57
2023/04/30 03:35:50;;;;;;;21.58;16.55;;;11.40;99.90;;;;;;4133086;28;20167;-52
2023/04/30 03:37:54;;;;;;;22.23;15.73;;;11.40;99.90;;;;;;4132987;28;20061;-53
2023/04/30 03:39:56;;;;;;;22.85;16.80;;;11.40;99.90;;;;;;4132288;28;20061;-54
2023/04/30 03:41:59;;;;;;;19.45;14.82;;;11.40;99.90;;;;;;4132697;28;20093;-55
2023/04/30 03:44:01;;;;;;;22.73;16.40;;;11.30;99.90;;;;;;4132945;28;20043;-55
2023/04/30 03:46:03;;;;;;;25.77;17.13;;;11.40;99.90;;;;;;4132352;28;20141;-55
2023/04/30 03:48:05;;;;;;;20.73;16.00;;;11.40;99.90;;;;;;4132920;28;20042;-53
2023/04/30 03:50:08;;;;;;;22.02;17.55;;;11.40;99.90;;;;;;4132146;28;20051;-54
2023/04/30 03:52:10;;;;;;;23.52;16.55;;;11.40;99.90;;;;;;4132485;28;20050;-55
2023/04/30 03:54:14;;;;;;;26.33;16.80;;;11.40;99.90;;;;;;4115513;28;20168;-55
2023/04/30 03:56:16;;;;;;;21.83;16.63;;;11.40;99.90;;;;;;4132613;28;20057;-55
2023/04/30 03:58:18;;;;;;;19.02;15.02;;;11.40;99.90;;;;;;4132718;28;20356;-55
2023/04/30 04:00:21;;;;;;;22.20;16.40;;;11.40;99.90;;;;;;4131406;28;20039;-55
2023/04/30 04:02:24;;;;;;;23.60;17.67;;;11.40;99.90;;;;;;4132376;28;20100;-52
2023/04/30 04:04:26;;;;;;;24.40;17.95;;;11.40;99.90;;;;;;4132664;28;20061;-54
2023/04/30 04:06:28;;;;;;;23.88;18.33;;;11.50;99.90;;;;;;4133322;28;20101;-56
2023/04/30 04:08:31;;;;;;;22.30;17.25;;;11.50;99.90;;;;;;4133891;28;20550;-53
2023/04/30 04:10:35;;;;;;;27.75;18.70;;;11.40;99.90;;;;;;4114349;28;20054;-52
2023/04/30 04:12:37;;;;;;;25.25;18.17;;;11.50;99.90;;;;;;4132276;28;20046;-53
2023/04/30 04:14:39;;;;;;;22.30;18.35;;;11.50;99.90;;;;;;4132305;28;20050;-53
2023/04/30 04:16:41;;;;;;;26.73;19.73;;;11.50;99.90;;;;;;4132376;28;20078;-53
2023/04/30 04:18:43;;;;;;;24.55;17.13;;;11.50;99.90;;;;;;4132398;28;20141;-55
2023/04/30 04:20:45;;;;;;;25.02;18.35;;;11.40;99.90;;;;;;4131554;28;20424;-54
2023/04/30 04:22:47;;;;;;;22.42;17.10;;;11.40;99.90;;;;;;4131854;28;20076;-55
2023/04/30 04:24:50;;;;;;;26.33;18.90;;;11.40;99.90;;;;;;4132325;28;20073;-52
2023/04/30 04:26:54;;;;;;;27.98;18.67;;;11.30;99.90;;;;;;4099952;29;20070;-52
2023/04/30 04:28:56;;;;;;;28.60;20.02;;;11.40;99.90;;;;;;4099740;29;20070;-54
2023/04/30 04:30:58;;;;;;;26.63;18.58;;;11.40;99.90;;;;;;4099173;29;20051;-52
2023/04/30 04:33:01;;;;;;;27.15;19.50;;;11.50;99.90;;;;;;4100169;29;20047;-53
2023/04/30 04:35:04;;;;;;;25.63;18.65;;;11.30;99.90;;;;;;4099999;29;20126;-53
2023/04/30 04:37:06;;;;;;;24.85;18.10;;;11.30;99.90;;;;;;4100064;29;20484;-54
2023/04/30 04:39:08;;;;;;;27.33;20.13;;;11.30;99.90;;;;;;4100320;29;20057;-52
2023/04/30 04:41:10;;;;;;;24.88;20.00;;;11.30;99.90;;;;;;4099117;29;20134;-54
2023/04/30 04:43:13;;;;;;;25.92;20.08;;;11.30;99.90;;;;;;4100068;29;20062;-55
2023/04/30 04:45:16;;;;;;;27.80;19.13;;;11.40;99.90;;;;;;4099773;29;20090;-54
2023/04/30 04:47:20;;;;;;;29.40;21.60;;;11.40;99.90;;;;;;4099785;29;20456;-55
2023/04/30 04:49:22;;;;;;;22.70;18.30;;;11.30;99.90;;;;;;4100086;29;20379;-54
2023/04/30 04:51:24;;;;;;;29.20;20.58;;;11.30;99.90;;;;;;4098740;28;20118;-54
2023/04/30 04:53:26;;;;;;;30.70;22.45;;;11.30;99.90;;;;;;4099756;29;20106;-55
2023/04/30 04:55:28;;;;;;;29.85;20.60;;;11.30;99.90;;;;;;4099678;29;20051;-56
2023/04/30 04:57:30;;;;;;;27.77;19.90;;;11.30;99.90;;;;;;4099578;29;20054;-54
2023/04/30 04:59:34;;;;;;;29.13;21.00;;;11.30;99.90;;;;;;4099148;29;20461;-55
2023/04/30 05:01:36;;;;;;;26.13;20.17;;;11.40;99.90;;;;;;4098809;29;20051;-54
2023/04/30 05:03:38;;;;;;;26.15;20.63;;;11.30;99.90;;;;;;4099621;29;20130;-54
2023/04/30 05:05:42;;;;;;;30.77;22.02;;;11.40;99.90;;;;;;4099666;29;20048;-53
2023/04/30 05:07:44;;;;;;;24.05;18.30;;;11.30;99.90;;;;;;4099658;29;20127;-54
2023/04/30 05:09:46;;;;;;;30.77;22.02;;;11.30;99.90;;;;;;4082528;29;20485;-53
2023/04/30 05:11:48;;;;;;;31.65;23.50;;;11.30;99.90;;;;;;4098354;29;20524;-54
2023/04/30 05:13:50;;;;;;;28.75;21.98;;;11.40;99.90;;;;;;4099581;29;20058;-54
2023/04/30 05:15:54;;;;;;;27.67;22.13;;;11.40;99.90;;;;;;4099472;29;20074;-55
2023/04/30 05:17:56;;;;;;;29.33;20.83;;;11.40;99.90;;;;;;4099476;29;20043;-53
2023/04/30 05:19:58;;;;;;;27.13;21.42;;;11.50;99.90;;;;;;4099876;29;20062;-61
2023/04/30 05:22:00;;;;;;;33.58;24.20;;;11.50;99.90;;;;;;4099669;29;20055;-54
2023/04/30 05:24:03;;;;;;;31.20;24.13;;;11.50;99.90;;;;;;4100576;29;20043;-55
2023/04/30 05:26:05;;;;;;;32.03;22.50;;;11.60;99.90;;;;;;4120132;28;20056;-57
2023/04/30 05:28:07;;;;;;;34.17;24.45;;;11.60;99.90;;;;;;4132528;28;20046;-59
2023/04/30 05:30:10;;;;;;;30.65;24.27;;;11.70;99.90;;;;;;4131464;28;20415;-55
2023/04/30 05:32:13;;;;;;;32.58;24.77;;;11.60;99.90;;;;;;4130875;28;20451;-54
2023/04/30 05:34:15;;;;;;;36.13;25.58;;;11.70;99.90;;;;;;4131504;28;20133;-55
2023/04/30 05:36:18;;;;;;;33.65;25.20;;;11.80;99.90;;;;;;4131331;28;20101;-55
2023/04/30 05:38:20;;;;;;;29.73;22.55;;;11.70;99.90;;;;;;4131142;28;20550;-54
2023/04/30 05:40:22;;;;;;;30.85;24.02;;;11.80;99.90;;;;;;4130449;28;20047;-53
2023/04/30 05:42:24;;;;;;;32.42;23.92;;;11.80;99.90;;;;;;4130739;28;20126;-54
2023/04/30 05:44:29;;;;;;;32.30;24.77;;;11.80;99.90;;;;;;4131198;28;20064;-55
2023/04/30 05:46:31;;;;;;;;;;;11.80;99.90;;;;;;4131898;28;20162;-54
2023/04/30 05:48:34;;;;;;;29.63;22.17;;;11.80;99.90;;;;;;4131339;28;19926;-55
2023/04/30 05:50:36;;;;;;;36.20;25.38;;;11.70;99.90;;;;;;4130588;28;20454;-53
2023/04/30 05:52:38;;;;;;;30.75;24.08;;;11.70;99.90;;;;;;4113690;28;20049;-53
2023/04/30 05:54:40;;;;;;;34.00;25.30;;;11.80;99.90;;;;;;4131158;28;20061;-54
2023/04/30 05:56:43;;;;;;;27.73;21.55;;;11.80;99.90;;;;;;4130708;28;20047;-55
2023/04/30 05:58:46;;;;;;;31.55;22.67;;;12.00;99.90;;;;;;4131142;28;20061;-54
2023/04/30 06:00:50;;;;;;;32.28;24.80;;;12.00;99.90;;;;;;4130253;28;20043;-55
2023/04/30 06:02:55;;;;;;;33.17;22.50;;;12.10;99.90;;;;;;4130787;28;20506;-53
2023/04/30 06:05:02;;;;;;;30.38;24.02;;;12.10;99.90;;;;;;4133569;28;20441;-55
2023/04/30 06:07:04;;;;;;;30.90;23.02;;;12.20;99.90;;;;;;4134407;28;20483;-54
2023/04/30 06:09:06;;;;;;;31.35;23.13;;;12.20;99.90;;;;;;4116818;28;20059;-54
2023/04/30 06:11:11;;;;;;;32.03;23.75;;;12.30;99.90;;;;;;4132842;28;20138;-53
2023/04/30 06:13:13;;;;;;;36.20;23.83;;;12.20;99.90;;;;;;4134405;28;20435;-54
2023/04/30 06:15:15;;;;;;;32.85;23.02;;;12.20;99.90;;;;;;4134282;28;20476;-55
2023/04/30 06:17:18;;;;;;;31.98;25.05;;;12.20;99.90;;;;;;4134366;28;20535;-55
2023/04/30 06:19:21;;;;;;;28.95;22.65;;;12.10;99.90;;;;;;4134100;28;20055;-54
2023/04/30 06:21:24;;;;;;;28.27;23.10;;;12.20;99.90;;;;;;4133125;28;20047;-52
2023/04/30 06:23:27;;;;;;;29.73;22.60;;;12.20;99.90;;;;;;4133994;28;20070;-54
2023/04/30 06:25:29;;;;;;;33.67;24.38;;;12.30;99.90;;;;;;4133780;28;20049;-55
2023/04/30 06:27:31;;;;;;;31.67;24.45;;;12.20;99.90;;;;;;4133912;28;20184;-55
2023/04/30 06:29:34;;;;;;;32.78;24.08;;;12.30;99.90;;;;;;4116965;28;20050;-55
2023/04/30 06:31:36;;;;;;;34.47;23.00;;;12.30;99.90;;;;;;4115747;28;20051;-54
2023/04/30 06:33:38;;;;;;;28.38;23.13;;;12.30;99.90;;;;;;4134141;28;20221;-55
2023/04/30 06:35:40;;;;;;;32.40;23.63;;;12.30;99.90;;;;;;4134044;28;20105;-53
2023/04/30 06:37:43;;;;;;;28.15;22.52;;;12.30;99.90;;;;;;4133641;28;20116;-54
2023/04/30 06:39:45;;;;;;;31.92;23.98;;;12.40;99.90;;;;;;4133592;28;20058;-55
2023/04/30 06:41:48;;;;;;;31.98;23.45;;;12.20;99.90;;;;;;4133032;28;20121;-53
2023/04/30 06:43:49;;;;;;;27.33;22.25;;;12.30;99.90;;;;;;4133736;28;20092;-55
2023/04/30 06:45:51;;;;;;;28.88;22.05;;;12.30;99.90;;;;;;4133675;28;20050;-53
2023/04/30 06:47:54;;;;;;;31.85;22.02;;;12.40;99.90;;;;;;4133767;28;20089;-52
2023/04/30 06:49:56;;;;;;;31.13;23.02;;;12.50;99.90;;;;;;4133699;28;20535;-53
2023/04/30 06:51:58;;;;;;;29.70;22.02;;;12.50;99.90;;;;;;4133029;28;20498;-56
2023/04/30 06:54:02;;;;;;;30.38;24.02;;;12.60;99.90;;;;;;4133230;28;20105;-54
2023/04/30 06:56:05;;;;;;;33.20;23.27;;;12.70;99.90;;;;;;4133518;28;20050;-53
2023/04/30 06:58:07;;;;;;;29.50;22.92;;;12.70;99.90;;;;;;4133608;28;20129;-53
2023/04/30 07:00:13;;;;;;;32.55;23.65;;;12.80;99.90;;;;;;4133373;28;20058;-55
2023/04/30 07:02:16;;;;;;;30.00;23.70;;;12.90;99.90;;;;;;4132580;28;20046;-54
2023/04/30 07:04:19;;;;;;;29.98;21.52;;;13.00;99.90;;;;;;4133690;28;20049;-55
2023/04/30 07:06:22;;;;;;;29.38;22.02;;;13.10;99.90;;;;;;4133464;28;20050;-55
2023/04/30 07:08:56;;;;;;;30.60;23.50;;;13.10;99.90;;;;;;4130745;28;20074;-54
2023/04/30 07:11:00;;;;;;;32.08;23.90;;;13.20;99.80;;;;;;4132668;28;20054;-54
2023/04/30 07:13:01;;;;;;;28.38;23.25;;;13.20;99.60;;;;;;4133133;28;20092;-53
2023/04/30 07:15:04;;;;;;;33.72;23.33;;;13.30;99.50;;;;;;4132745;28;20077;-54
2023/04/30 07:17:07;;;;;;;27.77;22.63;;;13.40;99.70;;;;;;4133479;28;20077;-54
2023/04/30 07:19:09;;;;;;;28.73;21.70;;;13.50;99.60;;;;;;4133091;28;20049;-55
2023/04/30 07:21:11;;;;;;;29.70;23.00;;;13.60;99.30;;;;;;4132183;28;20503;-52
2023/04/30 07:23:13;;;;;;;29.33;22.88;;;13.60;99.00;;;;;;4132644;28;20221;-52
2023/04/30 07:25:15;;;;;;;30.35;23.90;;;13.70;99.40;;;;;;4133216;28;20049;-52
2023/04/30 07:27:21;;;;;;;28.45;23.40;;;13.60;99.10;;;;;;4133232;28;20077;-51
2023/04/30 07:29:23;;;;;;;27.50;22.42;;;13.80;98.80;;;;;;4133020;28;20039;-51
2023/04/30 07:31:25;;;;;;;31.70;20.58;;;13.90;98.80;;;;;;4132257;28;20066;-52
2023/04/30 07:33:28;;;;;;;30.75;23.00;;;14.10;98.60;;;;;;4115597;28;20051;-54
2023/04/30 07:35:30;;;;;;;25.17;20.55;;;14.30;98.10;;;;;;4132945;28;20137;-54
2023/04/30 07:37:32;;;;;;;29.30;22.95;;;14.30;98.20;;;;;;4132611;28;20050;-54
2023/04/30 07:39:37;;;;;;;27.88;22.65;;;14.40;97.90;;;;;;4132813;28;20042;-53
2023/04/30 07:41:38;;;;;;;27.55;22.88;;;14.50;97.90;;;;;;4131953;28;20046;-54
2023/04/30 07:43:42;;;;;;;25.70;21.23;;;14.50;97.70;;;;;;4132781;28;20050;-54
2023/04/30 07:45:44;;;;;;;31.05;22.42;;;14.50;97.90;;;;;;4132970;28;20046;-53
2023/04/30 07:47:47;;;;;;;26.33;21.58;;;14.50;97.80;;;;;;4132867;28;20125;-54
2023/04/30 07:49:49;;;;;;;29.05;21.27;;;14.50;97.90;;;;;;4132780;28;20499;-54
2023/04/30 07:51:52;;;;;;;25.02;20.92;;;14.60;97.60;;;;;;4131957;28;20046;-54
2023/04/30 07:53:54;;;;;;;29.98;22.30;;;14.70;97.50;;;;;;4132895;28;20053;-55
2023/04/30 07:55:56;;;;;;;30.00;22.60;;;14.60;97.50;;;;;;4132796;28;20055;-55
2023/04/30 07:57:58;;;;;;;27.77;22.40;;;14.60;97.30;;;;;;4132773;28;20046;-54
2023/04/30 08:00:02;;;;;;;29.60;23.65;;;14.70;97.50;;;;;;4132542;28;20093;-54
2023/04/30 08:02:05;;;;;;;27.33;22.08;;;14.90;97.30;;;;;;4131487;28;20467;-55
2023/04/30 08:04:08;;;;;;;26.98;21.70;;;15.00;97.50;;;;;;4132737;28;20050;-54
2023/04/30 08:06:10;;;;;;;28.27;22.60;;;15.20;97.20;;;;;;4132324;28;20530;-55
2023/04/30 08:08:12;;;;;;;27.83;21.50;;;15.20;97.10;;;;;;4132161;28;20428;-54
2023/04/30 08:10:14;;;;;;;25.45;21.48;;;15.30;97.20;;;;;;4132427;28;20515;-54
2023/04/30 08:12:17;;;;;;;27.10;21.52;;;15.40;97.00;;;;;;4131368;28;20124;-51
2023/04/30 08:14:20;;;;;;;27.13;20.98;;;15.60;96.90;;;;;;4132553;28;20057;-53
2023/04/30 08:16:23;;;;;;;27.70;19.70;;;15.80;96.90;;;;;;4132523;28;20483;-55
2023/04/30 08:18:25;;;;;;;26.20;20.30;;;15.80;96.60;;;;;;4132615;28;20047;-52
2023/04/30 08:20:28;;;;;;;28.80;22.15;;;15.80;96.20;;;;;;4132274;28;20057;-52
2023/04/30 08:22:30;;;;;;;27.95;21.83;;;15.90;96.30;;;;;;4130789;28;20046;-52
2023/04/30 08:24:32;;;;;;;27.02;20.08;;;15.70;96.30;;;;;;4132234;28;20058;-52
2023/04/30 08:26:34;;;;;;;29.60;22.15;;;15.60;96.50;;;;;;4117606;28;20094;-53
2023/04/30 08:28:36;;;;;;;27.05;21.65;;;15.60;96.30;;;;;;4116120;28;20051;-52
2023/04/30 08:30:38;;;;;;;27.30;19.58;;;15.50;96.10;;;;;;4116073;28;20050;-54
2023/04/30 08:32:42;;;;;;;26.42;21.40;;;15.60;96.70;;;;;;4115151;28;20485;-51
2023/04/30 08:34:44;;;;;;;27.52;21.67;;;15.70;96.30;;;;;;4116365;28;20047;-51
2023/04/30 08:36:46;;;;;;;28.50;21.42;;;15.70;96.10;;;;;;4115798;28;20153;-51
2023/04/30 08:38:48;;;;;;;29.92;22.33;;;15.70;96.00;;;;;;4115936;28;20043;-53
2023/04/30 08:40:58;;;;;;;32.90;21.73;;;15.80;96.20;;;;;;4115536;28;20058;-54
2023/04/30 08:43:05;;;;;;;27.58;20.98;;;15.90;96.00;;;;;;4115626;28;20409;-54
2023/04/30 08:45:10;;;;;;;27.90;22.02;;;15.80;96.00;;;;;;4116008;28;20051;-58
2023/04/30 08:47:13;;;;;;;26.70;20.60;;;15.80;96.00;;;;;;4115711;28;20047;-53
2023/04/30 08:49:17;;;;;;;28.85;22.38;;;15.90;96.20;;;;;;4115919;28;20047;-53
2023/04/30 08:51:20;;;;;;;24.85;20.27;;;15.80;95.60;;;;;;4114523;28;20145;-52
2023/04/30 08:53:22;;;;;;;26.10;19.17;;;15.90;96.00;;;;;;4115642;28;20065;-52
2023/04/30 08:55:25;;;;;;;26.80;19.90;;;16.00;95.90;;;;;;4115665;28;20408;-52
2023/04/30 08:57:29;;;;;;;27.50;20.73;;;16.10;95.70;;;;;;4116013;28;20555;-55
2023/04/30 08:59:32;;;;;;;25.33;19.93;;;16.20;95.70;;;;;;4116213;28;20055;-59
2023/04/30 09:01:34;;;;;;;24.58;17.60;;;16.30;95.50;;;;;;4115102;28;20390;-54
2023/04/30 09:03:36;;;;;;;23.02;18.98;;;16.30;95.30;;;;;;4115542;28;20047;-53
2023/04/30 09:05:40;;;;;;;26.10;19.65;;;16.40;95.40;;;;;;4115607;28;20059;-54
2023/04/30 09:07:44;;;;;;;21.75;17.70;;;16.30;95.10;;;;;;4115617;28;20446;-53
2023/04/30 09:10:13;;;;;;;24.60;20.10;;;16.30;95.20;;;;;;4115699;28;20306;-52
2023/04/30 09:12:19;;;;;;;25.65;19.90;;;16.20;95.20;;;;;;4114776;28;20054;-51
2023/04/30 09:14:24;;;;;;;26.02;19.80;;;16.30;95.30;;;;;;4115448;28;20043;-51
2023/04/30 09:16:32;;;;;;;;;;;16.30;95.10;;;;;;4116057;28;20105;-51
2023/04/30 09:18:38;;;;;;;24.80;19.02;;;16.40;95.10;;;;;;4115364;28;20012;-51
2023/04/30 09:20:55;;;;;;;20.55;16.85;;;16.40;95.00;;;;;;4115226;28;20057;-52
2023/04/30 09:23:05;;;;;;;23.30;17.63;;;16.50;95.00;;;;;;4114629;28;20101;-52
2023/04/30 09:25:08;;;;;;;21.70;17.08;;;16.50;94.60;;;;;;4117969;28;20061;-53
2023/04/30 09:27:16;;;;;;;22.45;16.45;;;16.60;94.70;;;;;;4131875;28;20050;-59
2023/04/30 09:29:18;;;;;;;19.80;15.65;;;16.60;94.20;;;;;;4132005;28;20141;-52
2023/04/30 09:31:20;;;;;;;21.23;16.92;;;16.60;94.40;;;;;;4131171;28;20148;-52
2023/04/30 09:33:23;;;;;;;19.63;16.77;;;16.70;94.20;;;;;;4131685;28;20046;-51
2023/04/30 09:35:28;;;;;;;22.48;17.10;;;16.60;94.30;;;;;;4132126;28;20443;-52
2023/04/30 09:37:38;;;;;;;22.85;17.63;;;16.70;94.40;;;;;;4131502;28;20046;-54
2023/04/30 09:39:48;;;;;;;23.35;17.90;;;16.90;94.10;;;;;;4132610;28;20460;-51
2023/04/30 09:41:51;;;;;;;21.42;17.10;;;16.90;94.10;;;;;;4131348;28;20056;-52
2023/04/30 09:43:53;;;;;;;21.33;17.80;;;16.90;94.00;;;;;;4132085;28;20050;-52
2023/04/30 09:45:57;;;;;;;20.20;16.73;;;17.00;94.20;;;;;;4132311;28;20124;-54
2023/04/30 09:48:01;;;;;;;28.15;18.17;;;17.10;94.30;;;;;;4114096;28;20118;-51
2023/04/30 09:50:18;;;;;;;24.38;19.65;;;17.10;94.10;;;;;;4131402;28;20050;-50
2023/04/30 09:52:20;;;;;;;21.88;18.02;;;17.10;94.00;;;;;;4130580;28;20451;-54
2023/04/30 09:54:26;;;;;;;23.05;16.98;;;17.10;94.20;;;;;;4131391;28;20389;-52
2023/04/30 09:56:34;;;;;;;22.75;17.75;;;17.20;93.70;;;;;;4131212;28;20047;-52
2023/04/30 09:58:39;;;;;;;20.48;16.25;;;17.10;93.70;;;;;;4131217;28;20046;-52
2023/04/30 10:00:44;;;;;;;21.75;17.48;;;17.30;93.80;;;;;;4130901;28;20121;-56
2023/04/30 10:02:46;;;;;;;21.42;15.85;;;17.30;93.60;;;;;;4130158;28;20046;-54
2023/04/30 10:04:54;;;;;;;21.60;16.65;;;17.40;93.50;;;;;;4131029;28;20046;-54
2023/04/30 10:06:58;;;;;;;18.48;15.45;;;17.70;93.20;;;;;;4131426;28;20097;-54
2023/04/30 10:09:04;;;;;;;19.08;14.73;;;17.80;92.90;;;;;;4131025;28;20046;-54
2023/04/30 10:11:08;;;;;;;17.73;14.50;;;17.90;93.30;;;;;;4131219;28;20411;-54
2023/04/30 10:13:16;;;;;;;19.08;14.98;;;18.00;93.00;;;;;;4130483;28;20054;-54
2023/04/30 10:15:22;;;;;;;17.63;13.75;;;17.90;92.30;;;;;;4113945;28;20404;-52
2023/04/30 10:17:28;;;;;;;16.83;14.50;;;18.00;92.50;;;;;;4130949;28;20047;-54
2023/04/30 10:19:35;;;;;;;18.25;13.98;;;18.10;92.20;;;;;;4131013;28;20055;-54
2023/04/30 10:21:40;;;;;;;16.88;14.25;;;18.20;92.40;;;;;;4130075;28;20062;-54
2023/04/30 10:23:43;;;;;;;15.65;12.35;;;18.20;92.10;;;;;;4130931;28;20384;-54
2023/04/30 10:25:45;;;;;;;15.07;12.55;;;18.10;92.20;;;;;;4130935;28;20403;-55
2023/04/30 10:27:49;;;;;;;15.60;12.75;;;18.10;91.60;;;;;;4113679;28;20098;-55